sensor_id;sensor_type;location;lat;lon;timestamp;P1;durP1;ratioP1;P2;durP2;ratioP2
9392;SDS011;4736;52.508;13.422;2024-02-16T00:01:47;12.77;;;11.50;;
9392;SDS011;4736;52.508;13.422;2024-02-16T00:04:51;12.77;;;11.57;;
9392;SDS011;4736;52.508;13.422;2024-02-16T00:07:55;13.23;;;11.90;;
9392;SDS011;4736;52.508;13.422;2024-02-16T00:10:58;13.13;;;11.87;;
9392;SDS011;4736;52.508;13.422;2024-02-16T00:14:01;13.07;;;11.77;;
9392;SDS011;4736;52.508;13.422;2024-02-16T00:17:04;16.10;;;14.40;;
9392;SDS011;4736;52.508;13.422;2024-02-16T00:20:09;17.97;;;13.50;;
9392;SDS011;4736;52.508;13.422;2024-02-16T00:23:14;14.20;;;12.90;;
9392;SDS011;4736;52.508;13.422;2024-02-16T00:26:17;13.17;;;11.80;;
9392;SDS011;4736;52.508;13.422;2024-02-16T00:29:22;14.63;;;13.23;;
9392;SDS011;4736;52.508;13.422;2024-02-16T00:32:26;15.40;;;13.73;;
9392;SDS011;4736;52.508;13.422;2024-02-16T00:35:33;14.43;;;13.23;;
9392;SDS011;4736;52.508;13.422;2024-02-16T00:38:36;16.93;;;15.10;;
9392;SDS011;4736;52.508;13.422;2024-02-16T00:41:39;19.00;;;15.70;;
9392;SDS011;4736;52.508;13.422;2024-02-16T00:44:42;20.43;;;16.37;;
9392;SDS011;4736;52.508;13.422;2024-02-16T00:47:45;17.80;;;15.93;;
9392;SDS011;4736;52.508;13.422;2024-02-16T00:50:51;17.13;;;15.33;;
9392;SDS011;4736;52.508;13.422;2024-02-16T00:53:58;17.73;;;15.47;;
9392;SDS011;4736;52.508;13.422;2024-02-16T00:57:01;15.77;;;14.27;;
9392;SDS011;4736;52.508;13.422;2024-02-16T01:00:05;15.83;;;14.33;;
9392;SDS011;4736;52.508;13.422;2024-02-16T01:03:10;14.27;;;12.97;;
9392;SDS011;4736;52.508;13.422;2024-02-16T01:06:16;13.90;;;12.60;;
9392;SDS011;4736;52.508;13.422;2024-02-16T01:09:19;16.80;;;15.10;;
9392;SDS011;4736;52.508;13.422;2024-02-16T01:12:22;17.97;;;16.17;;
9392;SDS011;4736;52.508;13.422;2024-02-16T01:15:25;18.37;;;15.83;;
9392;SDS011;4736;52.508;13.422;2024-02-16T01:18:29;19.27;;;17.10;;
9392;SDS011;4736;52.508;13.422;2024-02-16T01:21:35;18.60;;;16.70;;
9392;SDS011;4736;52.508;13.422;2024-02-16T01:24:38;17.00;;;15.23;;
9392;SDS011;4736;52.508;13.422;2024-02-16T01:27:42;16.37;;;14.77;;
9392;SDS011;4736;52.508;13.422;2024-02-16T01:30:45;16.47;;;14.70;;
9392;SDS011;4736;52.508;13.422;2024-02-16T01:33:49;17.33;;;15.63;;
9392;SDS011;4736;52.508;13.422;2024-02-16T01:36:55;15.27;;;13.93;;
9392;SDS011;4736;52.508;13.422;2024-02-16T01:40:03;17.97;;;16.13;;
9392;SDS011;4736;52.508;13.422;2024-02-16T01:43:07;17.80;;;16.10;;
9392;SDS011;4736;52.508;13.422;2024-02-16T01:46:10;17.97;;;16.00;;
9392;SDS011;4736;52.508;13.422;2024-02-16T01:49:13;17.43;;;15.63;;
9392;SDS011;4736;52.508;13.422;2024-02-16T01:52:19;21.43;;;18.23;;
9392;SDS011;4736;52.508;13.422;2024-02-16T01:55:22;18.87;;;16.50;;
9392;SDS011;4736;52.508;13.422;2024-02-16T01:58:25;19.80;;;17.17;;
9392;SDS011;4736;52.508;13.422;2024-02-16T02:01:29;21.23;;;18.57;;
9392;SDS011;4736;52.508;13.422;2024-02-16T02:04:32;20.73;;;18.10;;
9392;SDS011;4736;52.508;13.422;2024-02-16T02:07:37;19.27;;;17.33;;
9392;SDS011;4736;52.508;13.422;2024-02-16T02:10:42;19.10;;;17.23;;
9392;SDS011;4736;52.508;13.422;2024-02-16T02:13:45;24.67;;;19.83;;
9392;SDS011;4736;52.508;13.422;2024-02-16T02:16:48;19.87;;;17.87;;
9392;SDS011;4736;52.508;13.422;2024-02-16T02:19:59;24.07;;;21.50;;
9392;SDS011;4736;52.508;13.422;2024-02-16T02:23:04;23.53;;;21.13;;
9392;SDS011;4736;52.508;13.422;2024-02-16T02:26:07;23.47;;;21.07;;
9392;SDS011;4736;52.508;13.422;2024-02-16T02:29:10;24.03;;;21.47;;
9392;SDS011;4736;52.508;13.422;2024-02-16T02:32:14;24.33;;;21.73;;
9392;SDS011;4736;52.508;13.422;2024-02-16T02:35:17;26.07;;;23.23;;
9392;SDS011;4736;52.508;13.422;2024-02-16T02:38:22;27.13;;;24.27;;
9392;SDS011;4736;52.508;13.422;2024-02-16T02:41:25;29.73;;;24.00;;
9392;SDS011;4736;52.508;13.422;2024-02-16T02:44:28;25.67;;;22.77;;
9392;SDS011;4736;52.508;13.422;2024-02-16T02:47:32;25.80;;;23.13;;
9392;SDS011;4736;52.508;13.422;2024-02-16T02:50:36;24.67;;;22.07;;
9392;SDS011;4736;52.508;13.422;2024-02-16T02:53:40;24.93;;;22.47;;
9392;SDS011;4736;52.508;13.422;2024-02-16T02:56:44;23.80;;;21.50;;
9392;SDS011;4736;52.508;13.422;2024-02-16T02:59:47;24.10;;;21.70;;
9392;SDS011;4736;52.508;13.422;2024-02-16T03:02:50;25.93;;;23.23;;
9392;SDS011;4736;52.508;13.422;2024-02-16T03:05:54;25.13;;;22.43;;
9392;SDS011;4736;52.508;13.422;2024-02-16T03:08:58;25.13;;;22.43;;
9392;SDS011;4736;52.508;13.422;2024-02-16T03:12:03;26.83;;;23.47;;
9392;SDS011;4736;52.508;13.422;2024-02-16T03:15:07;26.10;;;21.43;;
9392;SDS011;4736;52.508;13.422;2024-02-16T03:18:11;24.33;;;21.67;;
9392;SDS011;4736;52.508;13.422;2024-02-16T03:21:15;24.17;;;21.63;;
9392;SDS011;4736;52.508;13.422;2024-02-16T03:24:20;25.27;;;22.00;;
9392;SDS011;4736;52.508;13.422;2024-02-16T03:27:23;24.50;;;21.73;;
9392;SDS011;4736;52.508;13.422;2024-02-16T03:30:26;23.40;;;21.00;;
9392;SDS011;4736;52.508;13.422;2024-02-16T03:33:30;26.07;;;21.27;;
9392;SDS011;4736;52.508;13.422;2024-02-16T03:36:33;24.77;;;21.07;;
9392;SDS011;4736;52.508;13.422;2024-02-16T03:39:37;22.63;;;20.37;;
9392;SDS011;4736;52.508;13.422;2024-02-16T03:42:41;21.70;;;19.53;;
9392;SDS011;4736;52.508;13.422;2024-02-16T03:45:44;22.13;;;19.73;;
9392;SDS011;4736;52.508;13.422;2024-02-16T03:48:47;22.07;;;19.83;;
9392;SDS011;4736;52.508;13.422;2024-02-16T03:51:51;22.70;;;20.20;;
9392;SDS011;4736;52.508;13.422;2024-02-16T03:54:56;22.70;;;20.40;;
9392;SDS011;4736;52.508;13.422;2024-02-16T03:57:59;23.23;;;20.40;;
9392;SDS011;4736;52.508;13.422;2024-02-16T04:01:02;23.17;;;20.67;;
9392;SDS011;4736;52.508;13.422;2024-02-16T04:04:06;22.13;;;19.63;;
9392;SDS011;4736;52.508;13.422;2024-02-16T04:07:10;22.53;;;19.83;;
9392;SDS011;4736;52.508;13.422;2024-02-16T04:10:15;21.97;;;19.67;;
9392;SDS011;4736;52.508;13.422;2024-02-16T04:13:18;21.40;;;19.00;;
9392;SDS011;4736;52.508;13.422;2024-02-16T04:16:21;22.13;;;19.97;;
9392;SDS011;4736;52.508;13.422;2024-02-16T04:19:26;21.20;;;19.00;;
9392;SDS011;4736;52.508;13.422;2024-02-16T04:22:29;20.17;;;18.03;;
9392;SDS011;4736;52.508;13.422;2024-02-16T04:25:39;20.77;;;18.83;;
9392;SDS011;4736;52.508;13.422;2024-02-16T04:28:43;20.63;;;18.67;;
9392;SDS011;4736;52.508;13.422;2024-02-16T04:31:46;21.20;;;19.07;;
9392;SDS011;4736;52.508;13.422;2024-02-16T04:34:49;23.20;;;17.50;;
9392;SDS011;4736;52.508;13.422;2024-02-16T04:37:55;22.03;;;19.63;;
9392;SDS011;4736;52.508;13.422;2024-02-16T04:41:00;20.87;;;18.70;;
9392;SDS011;4736;52.508;13.422;2024-02-16T04:44:03;19.90;;;18.00;;
9392;SDS011;4736;52.508;13.422;2024-02-16T04:47:07;20.67;;;18.50;;
9392;SDS011;4736;52.508;13.422;2024-02-16T04:50:10;20.77;;;18.57;;
9392;SDS011;4736;52.508;13.422;2024-02-16T04:53:16;20.90;;;18.60;;
9392;SDS011;4736;52.508;13.422;2024-02-16T04:56:21;20.57;;;18.47;;
9392;SDS011;4736;52.508;13.422;2024-02-16T04:59:25;19.17;;;17.20;;
9392;SDS011;4736;52.508;13.422;2024-02-16T05:02:29;20.17;;;17.43;;
9392;SDS011;4736;52.508;13.422;2024-02-16T05:05:32;20.17;;;17.77;;
9392;SDS011;4736;52.508;13.422;2024-02-16T05:08:35;20.10;;;17.97;;
9392;SDS011;4736;52.508;13.422;2024-02-16T05:11:39;20.40;;;18.43;;
9392;SDS011;4736;52.508;13.422;2024-02-16T05:14:42;20.07;;;17.67;;
9392;SDS011;4736;52.508;13.422;2024-02-16T05:17:46;24.37;;;18.07;;
9392;SDS011;4736;52.508;13.422;2024-02-16T05:20:51;23.63;;;20.43;;
9392;SDS011;4736;52.508;13.422;2024-02-16T05:23:54;23.43;;;19.43;;
9392;SDS011;4736;52.508;13.422;2024-02-16T05:26:59;21.73;;;19.13;;
9392;SDS011;4736;52.508;13.422;2024-02-16T05:30:02;21.37;;;18.53;;
9392;SDS011;4736;52.508;13.422;2024-02-16T05:33:08;19.80;;;17.87;;
9392;SDS011;4736;52.508;13.422;2024-02-16T05:36:16;19.37;;;17.30;;
9392;SDS011;4736;52.508;13.422;2024-02-16T05:39:19;19.87;;;17.80;;
9392;SDS011;4736;52.508;13.422;2024-02-16T05:42:29;18.40;;;16.53;;
9392;SDS011;4736;52.508;13.422;2024-02-16T05:45:32;19.73;;;16.37;;
9392;SDS011;4736;52.508;13.422;2024-02-16T05:48:37;19.13;;;17.13;;
9392;SDS011;4736;52.508;13.422;2024-02-16T05:51:41;20.07;;;16.87;;
9392;SDS011;4736;52.508;13.422;2024-02-16T05:55:01;18.40;;;16.60;;
9392;SDS011;4736;52.508;13.422;2024-02-16T05:58:07;17.10;;;15.30;;
9392;SDS011;4736;52.508;13.422;2024-02-16T06:01:10;16.97;;;15.27;;
9392;SDS011;4736;52.508;13.422;2024-02-16T06:04:14;19.07;;;16.23;;
9392;SDS011;4736;52.508;13.422;2024-02-16T06:07:18;19.53;;;17.03;;
9392;SDS011;4736;52.508;13.422;2024-02-16T06:10:21;17.37;;;15.67;;
9392;SDS011;4736;52.508;13.422;2024-02-16T06:13:26;17.87;;;15.67;;
9392;SDS011;4736;52.508;13.422;2024-02-16T06:16:29;17.70;;;15.93;;
9392;SDS011;4736;52.508;13.422;2024-02-16T06:19:32;18.23;;;16.20;;
9392;SDS011;4736;52.508;13.422;2024-02-16T06:22:35;17.90;;;16.00;;
9392;SDS011;4736;52.508;13.422;2024-02-16T06:25:38;19.47;;;16.70;;
9392;SDS011;4736;52.508;13.422;2024-02-16T06:28:44;18.00;;;16.20;;
9392;SDS011;4736;52.508;13.422;2024-02-16T06:31:47;17.27;;;15.37;;
9392;SDS011;4736;52.508;13.422;2024-02-16T06:34:50;16.83;;;15.10;;
9392;SDS011;4736;52.508;13.422;2024-02-16T06:37:54;17.50;;;15.53;;
9392;SDS011;4736;52.508;13.422;2024-02-16T06:40:57;17.73;;;15.97;;
9392;SDS011;4736;52.508;13.422;2024-02-16T06:44:02;18.37;;;16.37;;
9392;SDS011;4736;52.508;13.422;2024-02-16T06:47:05;18.67;;;16.67;;
9392;SDS011;4736;52.508;13.422;2024-02-16T06:50:09;18.47;;;16.40;;
9392;SDS011;4736;52.508;13.422;2024-02-16T06:53:12;17.80;;;15.90;;
9392;SDS011;4736;52.508;13.422;2024-02-16T06:56:15;19.43;;;15.83;;
9392;SDS011;4736;52.508;13.422;2024-02-16T06:59:20;18.00;;;16.23;;
9392;SDS011;4736;52.508;13.422;2024-02-16T07:02:23;18.13;;;16.20;;
9392;SDS011;4736;52.508;13.422;2024-02-16T07:05:27;21.07;;;16.07;;
9392;SDS011;4736;52.508;13.422;2024-02-16T07:08:56;20.33;;;16.23;;
9392;SDS011;4736;52.508;13.422;2024-02-16T07:12:23;17.87;;;16.00;;
9392;SDS011;4736;52.508;13.422;2024-02-16T07:15:51;19.27;;;15.67;;
9392;SDS011;4736;52.508;13.422;2024-02-16T07:19:18;18.77;;;16.83;;
9392;SDS011;4736;52.508;13.422;2024-02-16T07:22:45;17.87;;;16.00;;
9392;SDS011;4736;52.508;13.422;2024-02-16T07:26:12;24.63;;;17.50;;
9392;SDS011;4736;52.508;13.422;2024-02-16T07:29:39;17.87;;;16.07;;
9392;SDS011;4736;52.508;13.422;2024-02-16T07:33:07;19.10;;;16.63;;
9392;SDS011;4736;52.508;13.422;2024-02-16T07:36:35;18.60;;;16.83;;
9392;SDS011;4736;52.508;13.422;2024-02-16T07:40:02;18.23;;;16.33;;
9392;SDS011;4736;52.508;13.422;2024-02-16T07:43:31;18.87;;;16.97;;
9392;SDS011;4736;52.508;13.422;2024-02-16T07:46:58;17.80;;;16.00;;
9392;SDS011;4736;52.508;13.422;2024-02-16T07:50:27;18.07;;;15.73;;
9392;SDS011;4736;52.508;13.422;2024-02-16T07:53:54;18.30;;;16.13;;
9392;SDS011;4736;52.508;13.422;2024-02-16T08:11:04;16.60;;;14.80;;
9392;SDS011;4736;52.508;13.422;2024-02-16T08:14:07;15.27;;;13.77;;
9392;SDS011;4736;52.508;13.422;2024-02-16T08:17:10;16.17;;;14.57;;
9392;SDS011;4736;52.508;13.422;2024-02-16T08:20:21;16.50;;;14.90;;
9392;SDS011;4736;52.508;13.422;2024-02-16T08:23:24;17.17;;;15.10;;
9392;SDS011;4736;52.508;13.422;2024-02-16T08:26:29;16.60;;;14.80;;
9392;SDS011;4736;52.508;13.422;2024-02-16T08:29:32;15.93;;;14.43;;
9392;SDS011;4736;52.508;13.422;2024-02-16T08:32:36;18.13;;;14.33;;
9392;SDS011;4736;52.508;13.422;2024-02-16T08:35:39;14.37;;;13.07;;
9392;SDS011;4736;52.508;13.422;2024-02-16T08:38:42;14.80;;;13.40;;
9392;SDS011;4736;52.508;13.422;2024-02-16T08:41:48;14.13;;;12.93;;
9392;SDS011;4736;52.508;13.422;2024-02-16T08:44:51;14.77;;;13.20;;
9392;SDS011;4736;52.508;13.422;2024-02-16T08:47:54;13.67;;;12.27;;
9392;SDS011;4736;52.508;13.422;2024-02-16T08:50:58;14.33;;;12.93;;
9392;SDS011;4736;52.508;13.422;2024-02-16T08:54:02;14.87;;;13.37;;
9392;SDS011;4736;52.508;13.422;2024-02-16T08:57:12;15.07;;;13.63;;
9392;SDS011;4736;52.508;13.422;2024-02-16T09:00:15;15.00;;;13.47;;
9392;SDS011;4736;52.508;13.422;2024-02-16T09:03:18;15.20;;;13.73;;
9392;SDS011;4736;52.508;13.422;2024-02-16T09:06:22;14.23;;;12.50;;
9392;SDS011;4736;52.508;13.422;2024-02-16T09:09:26;14.50;;;13.00;;
9392;SDS011;4736;52.508;13.422;2024-02-16T09:12:31;14.93;;;13.43;;
9392;SDS011;4736;52.508;13.422;2024-02-16T09:15:34;15.43;;;14.03;;
9392;SDS011;4736;52.508;13.422;2024-02-16T09:18:38;13.80;;;12.43;;
9392;SDS011;4736;52.508;13.422;2024-02-16T09:21:41;14.20;;;12.90;;
9392;SDS011;4736;52.508;13.422;2024-02-16T09:24:45;14.73;;;12.97;;
9392;SDS011;4736;52.508;13.422;2024-02-16T09:27:50;14.93;;;13.27;;
9392;SDS011;4736;52.508;13.422;2024-02-16T09:30:53;14.93;;;13.53;;
9392;SDS011;4736;52.508;13.422;2024-02-16T09:33:56;14.47;;;13.07;;
9392;SDS011;4736;52.508;13.422;2024-02-16T09:37:00;14.67;;;13.37;;
9392;SDS011;4736;52.508;13.422;2024-02-16T09:40:04;17.50;;;13.87;;
9392;SDS011;4736;52.508;13.422;2024-02-16T09:43:20;16.00;;;13.40;;
9392;SDS011;4736;52.508;13.422;2024-02-16T09:46:29;14.03;;;12.57;;
9392;SDS011;4736;52.508;13.422;2024-02-16T09:49:33;12.57;;;11.37;;
9392;SDS011;4736;52.508;13.422;2024-02-16T09:52:41;12.03;;;10.83;;
9392;SDS011;4736;52.508;13.422;2024-02-16T09:55:49;13.43;;;12.10;;
9392;SDS011;4736;52.508;13.422;2024-02-16T09:58:54;12.27;;;9.87;;
9392;SDS011;4736;52.508;13.422;2024-02-16T10:02:00;12.13;;;9.53;;
9392;SDS011;4736;52.508;13.422;2024-02-16T10:05:09;9.50;;;8.70;;
9392;SDS011;4736;52.508;13.422;2024-02-16T10:08:14;9.27;;;8.47;;
9392;SDS011;4736;52.508;13.422;2024-02-16T10:11:18;8.93;;;8.00;;
9392;SDS011;4736;52.508;13.422;2024-02-16T10:14:24;8.90;;;8.00;;
9392;SDS011;4736;52.508;13.422;2024-02-16T10:17:27;8.53;;;7.93;;
9392;SDS011;4736;52.508;13.422;2024-02-16T10:20:31;8.60;;;7.97;;
9392;SDS011;4736;52.508;13.422;2024-02-16T10:23:36;9.03;;;8.13;;
9392;SDS011;4736;52.508;13.422;2024-02-16T10:26:42;8.57;;;7.97;;
9392;SDS011;4736;52.508;13.422;2024-02-16T10:29:46;8.87;;;8.27;;
9392;SDS011;4736;52.508;13.422;2024-02-16T10:32:52;9.13;;;8.37;;
9392;SDS011;4736;52.508;13.422;2024-02-16T10:35:56;8.23;;;7.53;;
9392;SDS011;4736;52.508;13.422;2024-02-16T10:39:00;11.73;;;8.43;;
9392;SDS011;4736;52.508;13.422;2024-02-16T10:42:06;15.33;;;8.47;;
9392;SDS011;4736;52.508;13.422;2024-02-16T10:45:13;12.23;;;8.93;;
9392;SDS011;4736;52.508;13.422;2024-02-16T10:48:16;7.90;;;7.20;;
9392;SDS011;4736;52.508;13.422;2024-02-16T10:51:22;7.83;;;7.23;;
9392;SDS011;4736;52.508;13.422;2024-02-16T10:54:29;8.70;;;7.90;;
9392;SDS011;4736;52.508;13.422;2024-02-16T10:57:35;12.33;;;8.27;;
9392;SDS011;4736;52.508;13.422;2024-02-16T11:00:51;14.00;;;9.67;;
9392;SDS011;4736;52.508;13.422;2024-02-16T11:04:00;21.93;;;13.30;;
9392;SDS011;4736;52.508;13.422;2024-02-16T11:07:10;21.97;;;15.70;;
9392;SDS011;4736;52.508;13.422;2024-02-16T11:10:14;8.80;;;8.10;;
9392;SDS011;4736;52.508;13.422;2024-02-16T11:13:21;8.57;;;7.80;;
9392;SDS011;4736;52.508;13.422;2024-02-16T11:16:27;8.97;;;8.17;;
9392;SDS011;4736;52.508;13.422;2024-02-16T11:19:32;7.80;;;7.30;;
9392;SDS011;4736;52.508;13.422;2024-02-16T11:22:36;8.83;;;8.20;;
9392;SDS011;4736;52.508;13.422;2024-02-16T11:25:49;8.07;;;7.43;;
9392;SDS011;4736;52.508;13.422;2024-02-16T11:28:53;8.27;;;7.60;;
9392;SDS011;4736;52.508;13.422;2024-02-16T11:31:58;7.90;;;7.20;;
9392;SDS011;4736;52.508;13.422;2024-02-16T11:35:06;7.60;;;7.10;;
9392;SDS011;4736;52.508;13.422;2024-02-16T11:38:10;7.40;;;6.80;;
9392;SDS011;4736;52.508;13.422;2024-02-16T11:41:14;8.03;;;7.40;;
9392;SDS011;4736;52.508;13.422;2024-02-16T11:44:17;7.97;;;7.27;;
9392;SDS011;4736;52.508;13.422;2024-02-16T11:47:22;8.07;;;7.40;;
9392;SDS011;4736;52.508;13.422;2024-02-16T11:50:30;11.10;;;7.83;;
9392;SDS011;4736;52.508;13.422;2024-02-16T11:53:33;7.83;;;7.33;;
9392;SDS011;4736;52.508;13.422;2024-02-16T11:56:37;10.70;;;9.67;;
9392;SDS011;4736;52.508;13.422;2024-02-16T11:59:40;7.70;;;6.97;;
9392;SDS011;4736;52.508;13.422;2024-02-16T12:02:46;7.03;;;6.53;;
9392;SDS011;4736;52.508;13.422;2024-02-16T12:05:52;7.20;;;6.80;;
9392;SDS011;4736;52.508;13.422;2024-02-16T12:08:57;7.40;;;6.93;;
9392;SDS011;4736;52.508;13.422;2024-02-16T12:12:00;7.40;;;6.80;;
9392;SDS011;4736;52.508;13.422;2024-02-16T12:15:04;6.50;;;6.00;;
9392;SDS011;4736;52.508;13.422;2024-02-16T12:18:10;6.07;;;5.70;;
9392;SDS011;4736;52.508;13.422;2024-02-16T12:21:21;6.67;;;6.27;;
9392;SDS011;4736;52.508;13.422;2024-02-16T12:24:24;6.40;;;5.90;;
9392;SDS011;4736;52.508;13.422;2024-02-16T12:27:28;5.37;;;5.07;;
9392;SDS011;4736;52.508;13.422;2024-02-16T12:30:31;7.30;;;6.37;;
9392;SDS011;4736;52.508;13.422;2024-02-16T12:33:35;6.50;;;6.20;;
9392;SDS011;4736;52.508;13.422;2024-02-16T12:36:39;6.17;;;5.77;;
9392;SDS011;4736;52.508;13.422;2024-02-16T12:39:47;6.07;;;5.77;;
9392;SDS011;4736;52.508;13.422;2024-02-16T12:42:50;6.60;;;6.20;;
9392;SDS011;4736;52.508;13.422;2024-02-16T12:45:53;5.53;;;5.27;;
9392;SDS011;4736;52.508;13.422;2024-02-16T12:48:59;6.87;;;6.37;;
9392;SDS011;4736;52.508;13.422;2024-02-16T12:52:02;6.50;;;6.10;;
9392;SDS011;4736;52.508;13.422;2024-02-16T12:55:06;6.13;;;5.80;;
9392;SDS011;4736;52.508;13.422;2024-02-16T12:58:11;5.83;;;5.53;;
9392;SDS011;4736;52.508;13.422;2024-02-16T13:01:15;6.83;;;6.33;;
9392;SDS011;4736;52.508;13.422;2024-02-16T13:04:28;6.33;;;6.00;;
9392;SDS011;4736;52.508;13.422;2024-02-16T13:07:33;5.50;;;5.20;;
9392;SDS011;4736;52.508;13.422;2024-02-16T13:10:37;5.53;;;5.23;;
9392;SDS011;4736;52.508;13.422;2024-02-16T13:13:40;5.80;;;5.40;;
9392;SDS011;4736;52.508;13.422;2024-02-16T13:16:43;6.07;;;5.63;;
9392;SDS011;4736;52.508;13.422;2024-02-16T13:19:48;6.17;;;5.80;;
9392;SDS011;4736;52.508;13.422;2024-02-16T13:22:51;5.87;;;5.47;;
9392;SDS011;4736;52.508;13.422;2024-02-16T13:25:54;5.80;;;5.20;;
9392;SDS011;4736;52.508;13.422;2024-02-16T13:28:57;4.53;;;4.33;;
9392;SDS011;4736;52.508;13.422;2024-02-16T13:32:01;4.40;;;4.20;;
9392;SDS011;4736;52.508;13.422;2024-02-16T13:35:06;4.93;;;4.27;;
9392;SDS011;4736;52.508;13.422;2024-02-16T13:38:10;5.27;;;4.57;;
9392;SDS011;4736;52.508;13.422;2024-02-16T13:41:13;4.00;;;3.80;;
9392;SDS011;4736;52.508;13.422;2024-02-16T13:44:21;4.00;;;3.80;;
9392;SDS011;4736;52.508;13.422;2024-02-16T13:47:24;4.40;;;4.20;;
9392;SDS011;4736;52.508;13.422;2024-02-16T13:50:28;4.27;;;4.07;;
9392;SDS011;4736;52.508;13.422;2024-02-16T13:53:32;4.47;;;4.07;;
9392;SDS011;4736;52.508;13.422;2024-02-16T13:56:35;4.30;;;3.93;;
9392;SDS011;4736;52.508;13.422;2024-02-16T13:59:40;4.50;;;4.30;;
9392;SDS011;4736;52.508;13.422;2024-02-16T14:02:43;4.97;;;4.67;;
9392;SDS011;4736;52.508;13.422;2024-02-16T14:05:48;5.03;;;4.63;;
9392;SDS011;4736;52.508;13.422;2024-02-16T14:08:52;5.13;;;4.73;;
9392;SDS011;4736;52.508;13.422;2024-02-16T14:11:55;5.67;;;5.27;;
9392;SDS011;4736;52.508;13.422;2024-02-16T14:15:00;4.60;;;4.40;;
9392;SDS011;4736;52.508;13.422;2024-02-16T14:18:03;4.20;;;4.10;;
9392;SDS011;4736;52.508;13.422;2024-02-16T14:21:19;5.10;;;4.80;;
9392;SDS011;4736;52.508;13.422;2024-02-16T14:24:26;5.30;;;4.80;;
9392;SDS011;4736;52.508;13.422;2024-02-16T14:27:29;5.53;;;5.07;;
9392;SDS011;4736;52.508;13.422;2024-02-16T14:30:32;5.40;;;5.00;;
9392;SDS011;4736;52.508;13.422;2024-02-16T14:33:35;4.57;;;4.37;;
9392;SDS011;4736;52.508;13.422;2024-02-16T14:36:40;5.13;;;4.83;;
9392;SDS011;4736;52.508;13.422;2024-02-16T14:39:43;5.07;;;4.77;;
9392;SDS011;4736;52.508;13.422;2024-02-16T14:42:46;4.27;;;4.07;;
9392;SDS011;4736;52.508;13.422;2024-02-16T14:45:49;4.13;;;3.93;;
9392;SDS011;4736;52.508;13.422;2024-02-16T14:48:53;4.67;;;4.37;;
9392;SDS011;4736;52.508;13.422;2024-02-16T14:51:58;4.93;;;4.73;;
9392;SDS011;4736;52.508;13.422;2024-02-16T14:55:01;4.60;;;4.40;;
9392;SDS011;4736;52.508;13.422;2024-02-16T14:58:04;4.37;;;4.27;;
9392;SDS011;4736;52.508;13.422;2024-02-16T15:01:08;4.60;;;4.30;;
9392;SDS011;4736;52.508;13.422;2024-02-16T15:04:11;4.73;;;4.30;;
9392;SDS011;4736;52.508;13.422;2024-02-16T15:07:16;5.00;;;4.73;;
9392;SDS011;4736;52.508;13.422;2024-02-16T15:10:19;4.60;;;4.20;;
9392;SDS011;4736;52.508;13.422;2024-02-16T15:13:22;5.87;;;4.47;;
9392;SDS011;4736;52.508;13.422;2024-02-16T15:16:26;4.70;;;4.50;;
9392;SDS011;4736;52.508;13.422;2024-02-16T15:19:29;4.17;;;3.93;;
9392;SDS011;4736;52.508;13.422;2024-02-16T15:22:33;4.73;;;4.37;;
9392;SDS011;4736;52.508;13.422;2024-02-16T15:25:49;4.80;;;4.60;;
9392;SDS011;4736;52.508;13.422;2024-02-16T15:28:52;5.80;;;4.50;;
9392;SDS011;4736;52.508;13.422;2024-02-16T15:31:55;4.47;;;4.10;;
9392;SDS011;4736;52.508;13.422;2024-02-16T15:34:59;4.27;;;4.03;;
9392;SDS011;4736;52.508;13.422;2024-02-16T15:38:03;4.50;;;4.30;;
9392;SDS011;4736;52.508;13.422;2024-02-16T15:41:07;4.50;;;4.20;;
9392;SDS011;4736;52.508;13.422;2024-02-16T15:44:10;4.20;;;3.83;;
9392;SDS011;4736;52.508;13.422;2024-02-16T15:47:13;4.47;;;4.20;;
9392;SDS011;4736;52.508;13.422;2024-02-16T15:50:16;4.70;;;4.37;;
9392;SDS011;4736;52.508;13.422;2024-02-16T15:53:21;4.60;;;4.40;;
9392;SDS011;4736;52.508;13.422;2024-02-16T15:56:24;4.50;;;4.20;;
9392;SDS011;4736;52.508;13.422;2024-02-16T15:59:28;4.67;;;4.37;;
9392;SDS011;4736;52.508;13.422;2024-02-16T16:02:33;4.37;;;4.07;;
9392;SDS011;4736;52.508;13.422;2024-02-16T16:05:37;6.60;;;4.87;;
9392;SDS011;4736;52.508;13.422;2024-02-16T16:08:41;4.90;;;4.53;;
9392;SDS011;4736;52.508;13.422;2024-02-16T16:11:46;4.77;;;4.47;;
9392;SDS011;4736;52.508;13.422;2024-02-16T16:14:49;5.10;;;4.70;;
9392;SDS011;4736;52.508;13.422;2024-02-16T16:17:53;4.90;;;4.60;;
9392;SDS011;4736;52.508;13.422;2024-02-16T16:20:56;4.57;;;4.37;;
9392;SDS011;4736;52.508;13.422;2024-02-16T16:24:00;5.13;;;4.73;;
9392;SDS011;4736;52.508;13.422;2024-02-16T16:27:04;4.80;;;4.60;;
9392;SDS011;4736;52.508;13.422;2024-02-16T16:30:09;4.90;;;4.70;;
9392;SDS011;4736;52.508;13.422;2024-02-16T16:33:12;5.47;;;5.07;;
9392;SDS011;4736;52.508;13.422;2024-02-16T16:36:16;5.13;;;4.70;;
9392;SDS011;4736;52.508;13.422;2024-02-16T16:39:24;5.13;;;4.83;;
9392;SDS011;4736;52.508;13.422;2024-02-16T16:42:27;4.80;;;4.57;;
9392;SDS011;4736;52.508;13.422;2024-02-16T16:45:30;5.97;;;5.00;;
9392;SDS011;4736;52.508;13.422;2024-02-16T16:48:34;5.33;;;5.00;;
9392;SDS011;4736;52.508;13.422;2024-02-16T16:51:37;4.53;;;4.13;;
9392;SDS011;4736;52.508;13.422;2024-02-16T16:54:41;4.53;;;4.20;;
9392;SDS011;4736;52.508;13.422;2024-02-16T16:57:45;5.50;;;5.17;;
9392;SDS011;4736;52.508;13.422;2024-02-16T17:00:48;5.20;;;4.80;;
9392;SDS011;4736;52.508;13.422;2024-02-16T17:03:51;5.07;;;4.53;;
9392;SDS011;4736;52.508;13.422;2024-02-16T17:06:54;4.83;;;4.53;;
9392;SDS011;4736;52.508;13.422;2024-02-16T17:09:59;5.30;;;4.90;;
9392;SDS011;4736;52.508;13.422;2024-02-16T17:13:02;5.53;;;5.00;;
9392;SDS011;4736;52.508;13.422;2024-02-16T17:16:07;4.97;;;4.67;;
9392;SDS011;4736;52.508;13.422;2024-02-16T17:19:10;5.10;;;4.57;;
9392;SDS011;4736;52.508;13.422;2024-02-16T17:22:14;4.80;;;4.37;;
9392;SDS011;4736;52.508;13.422;2024-02-16T17:25:19;4.60;;;4.30;;
9392;SDS011;4736;52.508;13.422;2024-02-16T17:28:23;5.27;;;4.90;;
9392;SDS011;4736;52.508;13.422;2024-02-16T17:31:27;4.90;;;4.63;;
9392;SDS011;4736;52.508;13.422;2024-02-16T17:34:30;5.30;;;5.00;;
9392;SDS011;4736;52.508;13.422;2024-02-16T17:37:33;6.53;;;5.50;;
9392;SDS011;4736;52.508;13.422;2024-02-16T17:40:37;5.57;;;5.13;;
9392;SDS011;4736;52.508;13.422;2024-02-16T17:43:41;5.57;;;5.07;;
9392;SDS011;4736;52.508;13.422;2024-02-16T17:46:46;5.10;;;4.80;;
9392;SDS011;4736;52.508;13.422;2024-02-16T17:49:49;5.27;;;4.77;;
9392;SDS011;4736;52.508;13.422;2024-02-16T17:52:52;5.83;;;5.27;;
9392;SDS011;4736;52.508;13.422;2024-02-16T17:55:57;5.00;;;4.60;;
9392;SDS011;4736;52.508;13.422;2024-02-16T17:59:00;5.10;;;4.70;;
9392;SDS011;4736;52.508;13.422;2024-02-16T18:02:04;4.90;;;4.70;;
9392;SDS011;4736;52.508;13.422;2024-02-16T18:05:25;5.23;;;4.83;;
9392;SDS011;4736;52.508;13.422;2024-02-16T18:08:28;6.57;;;5.97;;
9392;SDS011;4736;52.508;13.422;2024-02-16T18:11:33;5.70;;;5.23;;
9392;SDS011;4736;52.508;13.422;2024-02-16T18:14:36;5.33;;;5.13;;
9392;SDS011;4736;52.508;13.422;2024-02-16T18:17:41;6.00;;;5.37;;
9392;SDS011;4736;52.508;13.422;2024-02-16T18:20:44;6.30;;;5.80;;
9392;SDS011;4736;52.508;13.422;2024-02-16T18:23:47;7.60;;;5.70;;
9392;SDS011;4736;52.508;13.422;2024-02-16T18:26:51;5.40;;;5.00;;
9392;SDS011;4736;52.508;13.422;2024-02-16T18:29:54;5.90;;;5.60;;
9392;SDS011;4736;52.508;13.422;2024-02-16T18:32:58;6.23;;;5.73;;
9392;SDS011;4736;52.508;13.422;2024-02-16T18:36:01;6.07;;;5.47;;
9392;SDS011;4736;52.508;13.422;2024-02-16T18:39:06;6.07;;;5.67;;
9392;SDS011;4736;52.508;13.422;2024-02-16T18:42:12;7.93;;;5.43;;
9392;SDS011;4736;52.508;13.422;2024-02-16T18:45:15;5.90;;;5.40;;
9392;SDS011;4736;52.508;13.422;2024-02-16T18:48:19;6.00;;;5.70;;